createdAt,value
2023-01-19T00:00:52.338Z,99369.09
2023-01-19T00:03:18.994Z,99374.25
2023-01-19T00:05:45.965Z,99376.56
2023-01-19T00:08:16.396Z,99374.63
2023-01-19T00:10:48.191Z,99380.31
2023-01-19T00:13:16.096Z,99371.69
2023-01-19T00:15:43.526Z,99362.94
2023-01-19T00:18:11.162Z,99373.03
2023-01-19T00:20:39.683Z,99377.59
2023-01-19T00:23:08.243Z,99373.03
2023-01-19T00:25:36.123Z,99374.34
2023-01-19T00:28:02.788Z,99374.97
2023-01-19T00:30:29.963Z,99378.75
2023-01-19T00:32:56.553Z,99382.16
2023-01-19T00:35:23.208Z,99384.47
2023-01-19T00:37:49.985Z,99392.25
2023-01-19T00:40:17.094Z,99383.50
2023-01-19T00:42:48.434Z,99384.00
2023-01-19T00:45:21.116Z,99383.19
2023-01-19T00:47:49.204Z,99382.06
2023-01-19T00:50:17.330Z,99391.09
2023-01-19T00:52:45.871Z,99390.75
2023-01-19T00:55:14.575Z,99396.16
2023-01-19T00:57:42.616Z,99394.16
2023-01-19T01:00:12.669Z,99393.00
2023-01-19T01:02:41.214Z,99397.56
2023-01-19T01:05:09.199Z,99399.25
2023-01-19T01:07:40.844Z,99399.09
2023-01-19T01:10:09.640Z,99394.88
2023-01-19T01:12:37.143Z,99394.88
2023-01-19T01:15:06.215Z,99399.75
2023-01-19T01:17:33.039Z,99405.56
2023-01-19T01:19:59.790Z,99407.31
2023-01-19T01:22:26.809Z,99405.19
2023-01-19T01:24:56.378Z,99408.66
2023-01-19T01:27:23.036Z,99408.13
2023-01-19T01:29:49.874Z,99409.78
2023-01-19T01:32:16.788Z,99405.88
2023-01-19T01:34:43.924Z,99408.81
2023-01-19T01:37:11.396Z,99409.19
2023-01-19T01:39:38.079Z,99411.75
2023-01-19T01:42:16.513Z,99419.41
2023-01-19T01:45:00.870Z,99406.53
2023-01-19T01:47:42.205Z,99409.78
2023-01-19T01:50:19.149Z,99407.31
2023-01-19T01:53:07.414Z,99399.75
2023-01-19T01:55:43.255Z,99408.22
2023-01-19T01:58:11.587Z,99408.66
2023-01-19T02:00:58.492Z,99402.41
2023-01-19T02:03:26.810Z,99404.31
2023-01-19T02:06:00.220Z,99403.00
2023-01-19T02:09:03.843Z,99396.03
2023-01-19T02:11:50.302Z,99394.28
2023-01-19T02:14:17.044Z,99392.69
2023-01-19T02:16:43.893Z,99395.44
2023-01-19T02:19:17.152Z,99397.66
2023-01-19T02:21:55.377Z,99399.78
2023-01-19T02:24:22.731Z,99397.16
2023-01-19T02:26:50.617Z,99411.03
2023-01-19T02:29:22.877Z,99409.38
2023-01-19T02:31:49.811Z,99403.72
2023-01-19T02:34:20.107Z,99405.50
2023-01-19T02:36:56.463Z,99407.28
2023-01-19T02:39:45.871Z,99401.81
2023-01-19T02:42:35.932Z,99399.84
2023-01-19T02:45:08.991Z,99406.63
2023-01-19T02:47:51.604Z,99401.97
2023-01-19T02:50:39.430Z,99413.78
2023-01-19T02:53:30.493Z,99408.94
2023-01-19T02:56:19.781Z,99409.91
2023-01-19T02:58:59.019Z,99407.13
2023-01-19T03:01:29.360Z,99409.81
2023-01-19T03:04:06.754Z,99410.22
2023-01-19T03:06:41.531Z,99409.78
2023-01-19T03:09:34.928Z,99413.50
2023-01-19T03:12:28.080Z,99421.88
2023-01-19T03:15:00.659Z,99424.22
2023-01-19T03:17:31.473Z,99423.38
2023-01-19T03:19:58.316Z,99423.75
2023-01-19T03:22:29.352Z,99425.88
2023-01-19T03:25:01.665Z,99425.97
2023-01-19T03:27:40.704Z,99428.28
2023-01-19T03:30:18.591Z,99428.25
2023-01-19T03:32:52.704Z,99422.44
2023-01-19T03:35:22.682Z,99421.78
2023-01-19T03:37:53.056Z,99425.88
2023-01-19T03:40:21.033Z,99431.38
2023-01-19T03:42:50.348Z,99426.84
2023-01-19T03:45:18.247Z,99425.88
2023-01-19T03:47:45.165Z,99436.38
2023-01-19T03:50:19.753Z,99432.34
2023-01-19T03:52:46.535Z,99436.72
2023-01-19T03:55:13.773Z,99440.13
2023-01-19T03:57:40.430Z,99426.69
2023-01-19T04:00:07.983Z,99437.03
2023-01-19T04:02:38.884Z,99438.03
2023-01-19T04:05:05.887Z,99436.38
2023-01-19T04:07:32.760Z,99437.88
2023-01-19T04:09:59.408Z,99448.06
2023-01-19T04:12:26.231Z,99441.91
2023-01-19T04:14:53.082Z,99451.47
2023-01-19T04:17:19.659Z,99447.59
2023-01-19T04:19:46.315Z,99454.09
2023-01-19T04:22:13.049Z,99442.56
2023-01-19T04:24:39.747Z,99450.19
2023-01-19T04:27:06.344Z,99457.00
2023-01-19T04:29:33.266Z,99449.53
2023-01-19T04:32:00.100Z,99445.81
2023-01-19T04:34:26.900Z,99462.69
2023-01-19T04:36:56.016Z,99457.34
2023-01-19T04:39:23.185Z,99463.81
2023-01-19T04:41:51.612Z,99460.56
2023-01-19T04:44:18.218Z,99462.66
2023-01-19T04:46:45.066Z,99458.97
2023-01-19T04:49:11.919Z,99464.47
2023-01-19T04:51:38.587Z,99456.84
2023-01-19T04:54:05.413Z,99465.25
2023-01-19T04:56:32.147Z,99468.34
2023-01-19T04:58:59.123Z,99471.91
2023-01-19T05:01:26.189Z,99469.16
2023-01-19T05:03:53.075Z,99452.78
2023-01-19T05:06:20.033Z,99453.38
2023-01-19T05:08:46.913Z,99453.59
2023-01-19T05:11:13.831Z,99461.88
2023-01-19T05:13:40.634Z,99472.88
2023-01-19T05:16:07.615Z,99473.22
2023-01-19T05:18:36.904Z,99474.50
2023-01-19T05:21:04.195Z,99475.31
2023-01-19T05:23:32.770Z,99477.91
2023-01-19T05:26:03.502Z,99485.38
2023-01-19T05:28:33.106Z,99481.94
2023-01-19T05:30:59.909Z,99491.88
2023-01-19T05:33:27.657Z,99495.75
2023-01-19T05:35:54.993Z,99497.38
2023-01-19T05:38:34.250Z,99505.47
2023-01-19T05:41:02.570Z,99501.59
2023-01-19T05:43:29.164Z,99506.59
2023-01-19T05:45:55.891Z,99499.31
2023-01-19T05:48:22.542Z,99499.00
2023-01-19T05:50:49.664Z,99495.75
2023-01-19T05:53:17.079Z,99498.34
2023-01-19T05:55:43.913Z,99498.50
2023-01-19T05:58:10.526Z,99494.63
2023-01-19T06:00:37.312Z,99494.25
2023-01-19T06:03:05.019Z,99497.53
2023-01-19T06:05:32.326Z,99501.41
2023-01-19T06:07:59.157Z,99506.06
2023-01-19T06:10:25.939Z,99497.81
2023-01-19T06:12:52.590Z,99504.81
2023-01-19T06:15:19.789Z,99502.25
2023-01-19T06:17:46.512Z,99502.25
2023-01-19T06:20:16.032Z,99517.16
2023-01-19T06:22:42.649Z,99518.16
2023-01-19T06:25:10.255Z,99510.53
2023-01-19T06:27:37.320Z,99523.81
2023-01-19T06:30:06.506Z,99524.44
2023-01-19T06:32:33.753Z,99528.94
2023-01-19T06:35:01.518Z,99526.31
2023-01-19T06:37:30.791Z,99535.38
2023-01-19T06:39:57.669Z,99545.44
2023-01-19T06:42:24.807Z,99541.53
2023-01-19T06:44:51.521Z,99548.16
2023-01-19T06:47:18.464Z,99552.84
2023-01-19T06:49:45.114Z,99562.56
2023-01-19T06:52:15.854Z,99562.25
2023-01-19T06:54:43.667Z,99560.41
2023-01-19T06:57:12.714Z,99562.06
2023-01-19T06:59:39.833Z,99571.78
2023-01-19T07:02:27.873Z,99573.41
2023-01-19T07:04:53.401Z,99574.69
2023-01-19T07:07:20.060Z,99571.75
2023-01-19T07:09:46.693Z,99570.94
2023-01-19T07:12:14.972Z,99584.75
2023-01-19T07:14:45.874Z,99579.69
2023-01-19T07:17:12.557Z,99591.41
2023-01-19T07:19:39.200Z,99587.50
2023-01-19T07:22:08.725Z,99588.66
2023-01-19T07:24:35.695Z,99594.00
2023-01-19T07:27:02.285Z,99597.91
2023-01-19T07:29:29.171Z,99597.72
2023-01-19T07:31:56.207Z,99603.91
2023-01-19T07:34:23.035Z,99602.56
2023-01-19T07:36:49.860Z,99608.56
2023-01-19T07:39:16.757Z,99604.69
2023-01-19T07:41:43.553Z,99612.00
2023-01-19T07:44:10.262Z,99613.75
2023-01-19T07:46:36.966Z,99615.50
2023-01-19T07:49:03.701Z,99619.56
2023-01-19T07:51:30.360Z,99622.97
2023-01-19T07:53:57.267Z,99626.03
2023-01-19T07:56:24.732Z,99624.25
2023-01-19T07:58:52.642Z,99629.28
2023-01-19T08:01:19.703Z,99628.16
2023-01-19T08:03:48.838Z,99630.25
2023-01-19T08:06:36.004Z,99631.88
2023-01-19T08:09:05.703Z,99636.13
2023-01-19T08:11:32.987Z,99631.06
2023-01-19T08:14:00.843Z,99634.97
2023-01-19T08:16:27.945Z,99635.63
2023-01-19T08:18:54.590Z,99639.69
2023-01-19T08:21:21.438Z,99643.59
2023-01-19T08:23:55.884Z,99647.50
2023-01-19T08:26:30.024Z,99645.88
2023-01-19T08:28:58.921Z,99659.38
2023-01-19T08:31:26.657Z,99650.28
2023-01-19T08:33:53.971Z,99653.03
2023-01-19T08:36:22.536Z,99665.56
2023-01-19T08:38:49.162Z,99666.41
2023-01-19T08:41:17.006Z,99664.75
2023-01-19T08:43:45.401Z,99664.75
2023-01-19T08:46:12.511Z,99671.94
2023-01-19T08:48:40.096Z,99676.28
2023-01-19T08:51:06.965Z,99671.25
2023-01-19T08:53:34.694Z,99678.91
2023-01-19T08:56:02.251Z,99682.31
2023-01-19T08:58:29.177Z,99681.66
2023-01-19T09:00:56.332Z,99685.56
2023-01-19T09:03:23.387Z,99687.84
2023-01-19T09:05:50.450Z,99689.00
2023-01-19T09:08:17.448Z,99691.75
2023-01-19T09:10:47.283Z,99693.38
2023-01-19T09:13:14.941Z,99691.91
2023-01-19T09:15:43.337Z,99697.75
2023-01-19T09:18:17.048Z,99705.88
2023-01-19T09:20:45.529Z,99704.44
2023-01-19T09:23:15.565Z,99704.09
2023-01-19T09:25:44.513Z,99705.38
2023-01-19T09:28:12.683Z,99708.50
2023-01-19T09:30:41.458Z,99711.59
2023-01-19T09:33:13.458Z,99722.97
2023-01-19T09:35:40.732Z,99712.56
2023-01-19T09:38:08.930Z,99715.78
2023-01-19T09:40:42.189Z,99715.94
2023-01-19T09:43:23.867Z,99717.44
2023-01-19T09:46:06.681Z,99719.06
2023-01-19T09:48:45.762Z,99719.84
2023-01-19T09:51:21.468Z,99733.34
2023-01-19T09:53:57.521Z,99727.34
2023-01-19T09:56:25.098Z,99729.44
2023-01-19T09:58:52.752Z,99736.59
2023-01-19T10:01:22.540Z,99739.50
2023-01-19T10:03:56.370Z,99741.47
2023-01-19T10:06:23.145Z,99743.09
2023-01-19T10:09:04.151Z,99748.75
2023-01-19T10:11:51.478Z,99751.06
2023-01-19T10:15:01.652Z,99747.97
2023-01-19T10:18:11.228Z,99748.63
2023-01-19T10:21:00.762Z,99744.69
2023-01-19T10:23:46.163Z,99748.44
2023-01-19T10:26:15.850Z,99749.56
2023-01-19T10:28:43.365Z,99755.09
2023-01-19T10:31:11.724Z,99754.44
2023-01-19T10:33:38.965Z,99755.94
2023-01-19T10:36:16.665Z,99750.38
2023-01-19T10:38:44.253Z,99749.56
2023-01-19T10:41:33.755Z,99755.44
2023-01-19T10:44:03.471Z,99753.50
2023-01-19T10:46:46.332Z,99747.97
2023-01-19T10:49:29.035Z,99757.56
2023-01-19T10:51:58.530Z,99759.03
2023-01-19T10:54:26.517Z,99752.03
2023-01-19T10:56:59.446Z,99756.75
2023-01-19T10:59:47.055Z,99756.06
2023-01-19T11:02:26.602Z,99761.63
2023-01-19T11:04:59.132Z,99750.53
2023-01-19T11:07:25.985Z,99749.41
2023-01-19T11:10:17.804Z,99755.25
2023-01-19T11:13:08.677Z,99756.06
2023-01-19T11:15:41.483Z,99757.72
2023-01-19T11:18:08.806Z,99753.13
2023-01-19T11:20:52.791Z,99755.06
2023-01-19T11:23:30.872Z,99763.72
2023-01-19T11:26:01.492Z,99767.41
2023-01-19T11:28:49.338Z,99760.44
2023-01-19T11:31:16.133Z,99755.22
2023-01-19T11:33:49.862Z,99765.16
2023-01-19T11:36:21.787Z,99755.69
2023-01-19T11:38:51.741Z,99754.56
2023-01-19T11:41:26.434Z,99747.38
2023-01-19T11:43:56.606Z,99750.16
2023-01-19T11:46:26.825Z,99761.22
2023-01-19T11:49:01.794Z,99749.50
2023-01-19T11:51:35.518Z,99755.19
2023-01-19T11:54:13.905Z,99754.84
2023-01-19T11:56:41.698Z,99757.13
2023-01-19T11:59:12.533Z,99758.28
2023-01-19T12:01:46.813Z,99758.28
2023-01-19T12:04:17.789Z,99755.03
2023-01-19T12:06:48.437Z,99759.91
2023-01-19T12:09:26.087Z,99759.44
2023-01-19T12:12:04.187Z,99751.28
2023-01-19T12:14:55.574Z,99757.63
2023-01-19T12:17:45.407Z,99760.03
2023-01-19T12:20:44.460Z,99753.06
2023-01-19T12:23:11.098Z,99750.75
2023-01-19T12:25:55.856Z,99751.28
2023-01-19T12:28:32.147Z,99749.81
2023-01-19T12:31:01.009Z,99752.09
2023-01-19T12:33:38.385Z,99745.91
2023-01-19T12:36:17.284Z,99744.75
2023-01-19T12:38:45.806Z,99752.41
2023-01-19T12:41:16.601Z,99746.72
2023-01-19T12:43:43.290Z,99749.97
2023-01-19T12:46:41.289Z,99755.81
2023-01-19T12:49:23.163Z,99756.19
2023-01-19T12:51:52.494Z,99751.47
2023-01-19T12:54:32.691Z,99760.91
2023-01-19T12:57:03.530Z,99750.47
2023-01-19T12:59:33.127Z,99752.09
2023-01-19T13:02:28.145Z,99747.34
2023-01-19T13:05:17.907Z,99740.88
2023-01-19T13:08:02.528Z,99741.69
2023-01-19T13:10:54.012Z,99744.91
2023-01-19T13:13:25.073Z,99739.72
2023-01-19T13:15:55.754Z,99743.97
2023-01-19T13:18:30.705Z,99740.25
2023-01-19T13:21:01.059Z,99744.63
2023-01-19T13:23:49.946Z,99740.91
2023-01-19T13:26:21.788Z,99747.25
2023-01-19T13:28:52.569Z,99743.00
2023-01-19T13:31:23.073Z,99746.91
2023-01-19T13:33:53.691Z,99741.38
2023-01-19T13:36:28.810Z,99743.69
2023-01-19T13:38:58.865Z,99740.25
2023-01-19T13:41:29.456Z,99738.16
2023-01-19T13:44:25.080Z,99741.38
2023-01-19T13:46:53.627Z,99732.25
2023-01-19T13:49:30.824Z,99740.44
2023-01-19T13:52:27.869Z,99734.09
2023-01-19T13:54:57.920Z,99740.44
2023-01-19T13:57:39.387Z,99743.00
2023-01-19T14:00:12.028Z,99743.00
2023-01-19T14:02:40.294Z,99740.91
2023-01-19T14:05:16.800Z,99743.53
2023-01-19T14:07:44.003Z,99746.28
2023-01-19T14:10:16.606Z,99739.75
2023-01-19T14:12:58.504Z,99738.81
2023-01-19T14:15:25.970Z,99745.66
2023-01-19T14:18:21.040Z,99733.47
2023-01-19T14:21:07.698Z,99738.81
2023-01-19T14:23:43.533Z,99743.00
2023-01-19T14:26:39.360Z,99747.06
2023-01-19T14:29:24.890Z,99748.25
2023-01-19T14:32:03.515Z,99747.78
2023-01-19T14:34:51.403Z,99749.41
2023-01-19T14:37:31.493Z,99755.41
2023-01-19T14:40:18.521Z,99763.25
2023-01-19T14:42:52.576Z,99758.84
2023-01-19T14:45:26.583Z,99754.59
2023-01-19T14:48:21.824Z,99754.59
2023-01-19T14:51:02.940Z,99750.53
2023-01-19T14:53:37.057Z,99751.97
2023-01-19T14:56:06.201Z,99751.50
2023-01-19T14:58:34.409Z,99751.50
2023-01-19T15:01:01.924Z,99757.53
2023-01-19T15:03:44.142Z,99747.59
2023-01-19T15:06:20.793Z,99752.19
2023-01-19T15:08:50.038Z,99752.19
2023-01-19T15:11:24.614Z,99753.13
2023-01-19T15:14:10.233Z,99754.44
2023-01-19T15:16:36.991Z,99755.41
2023-01-19T15:19:03.993Z,99754.94
2023-01-19T15:21:30.731Z,99755.41
2023-01-19T15:23:58.573Z,99770.88
2023-01-19T15:26:26.649Z,99756.53
2023-01-19T15:28:53.694Z,99760.94
2023-01-19T15:31:25.182Z,99769.72
2023-01-19T15:33:55.003Z,99763.72
2023-01-19T15:36:24.213Z,99772.84
2023-01-19T15:38:51.425Z,99764.19
2023-01-19T15:41:18.171Z,99767.56
2023-01-19T15:43:44.904Z,99765.81
2023-01-19T15:46:15.613Z,99768.13
2023-01-19T15:48:42.621Z,99776.72
2023-01-19T15:51:14.267Z,99773.16
2023-01-19T15:53:41.578Z,99775.91
2023-01-19T15:56:23.539Z,99783.09
2023-01-19T15:58:51.036Z,99780.13
2023-01-19T16:01:20.567Z,99782.56
2023-01-19T16:03:47.509Z,99780.59
2023-01-19T16:06:16.304Z,99781.75
2023-01-19T16:08:43.420Z,99778.50
2023-01-19T16:11:12.327Z,99788.91
2023-01-19T16:13:39.815Z,99787.75
2023-01-19T16:16:13.297Z,99789.88
2023-01-19T16:18:40.114Z,99799.91
2023-01-19T16:21:06.742Z,99792.06
2023-01-19T16:23:33.668Z,99800.50
2023-01-19T16:26:30.261Z,99805.75
2023-01-19T16:28:58.823Z,99810.16
2023-01-19T16:31:26.024Z,99809.00
2023-01-19T16:33:52.883Z,99818.59
2023-01-19T16:36:22.914Z,99811.56
2023-01-19T16:38:50.167Z,99820.38
2023-01-19T16:41:17.294Z,99820.19
2023-01-19T16:43:44.336Z,99823.09
2023-01-19T16:46:20.987Z,99827.81
2023-01-19T16:48:47.744Z,99820.47
2023-01-19T16:51:14.458Z,99825.66
2023-01-19T16:53:41.288Z,99832.03
2023-01-19T16:56:09.998Z,99841.97
2023-01-19T16:58:38.357Z,99837.88
2023-01-19T17:01:10.061Z,99841.47
2023-01-19T17:03:38.495Z,99848.66
2023-01-19T17:06:10.134Z,99843.09
2023-01-19T17:08:37.489Z,99844.75
2023-01-19T17:11:24.705Z,99847.81
2023-01-19T17:14:02.119Z,99843.09
2023-01-19T17:16:30.905Z,99850.94
2023-01-19T17:18:59.301Z,99849.47
2023-01-19T17:21:26.037Z,99853.00
2023-01-19T17:23:54.648Z,99852.09
2023-01-19T17:26:21.910Z,99853.88
2023-01-19T17:28:48.812Z,99850.31
2023-01-19T17:31:18.122Z,99857.88
2023-01-19T17:33:47.142Z,99865.78
2023-01-19T17:36:17.495Z,99875.06
2023-01-19T17:38:44.324Z,99875.97
2023-01-19T17:41:16.935Z,99882.59
2023-01-19T17:43:43.943Z,99885.28
2023-01-19T17:46:11.067Z,99880.34
2023-01-19T17:48:39.533Z,99881.63
2023-01-19T17:51:09.011Z,99871.53
2023-01-19T17:53:40.400Z,99875.34
2023-01-19T17:56:10.412Z,99876.06
2023-01-19T17:58:37.480Z,99876.44
2023-01-19T18:01:18.765Z,99877.31
2023-01-19T18:03:46.258Z,99886.78
2023-01-19T18:06:12.886Z,99877.53
2023-01-19T18:08:41.603Z,99886.16
2023-01-19T18:11:09.048Z,99886.03
2023-01-19T18:13:36.285Z,99884.88
2023-01-19T18:16:11.419Z,99885.09
2023-01-19T18:18:38.719Z,99887.53
2023-01-19T18:21:08.282Z,99887.53
2023-01-19T18:23:36.260Z,99888.53
2023-01-19T18:26:06.246Z,99892.31
2023-01-19T18:28:33.307Z,99887.25
2023-01-19T18:31:00.567Z,99887.13
2023-01-19T18:33:28.038Z,99893.31
2023-01-19T18:35:54.768Z,99903.06
2023-01-19T18:38:21.439Z,99898.34
2023-01-19T18:40:48.083Z,99903.41
2023-01-19T18:43:15.154Z,99899.16
2023-01-19T18:45:42.173Z,99896.56
2023-01-19T18:48:09.523Z,99894.28
2023-01-19T18:50:37.734Z,99903.75
2023-01-19T18:53:05.131Z,99907.19
2023-01-19T18:55:31.894Z,99900.34
2023-01-19T18:57:58.629Z,99910.78
2023-01-19T19:00:25.353Z,99914.53
2023-01-19T19:02:53.274Z,99907.53
2023-01-19T19:05:20.019Z,99906.06
2023-01-19T19:07:47.099Z,99915.50
2023-01-19T19:10:14.151Z,99917.31
2023-01-19T19:12:41.305Z,99915.22
2023-01-19T19:15:08.695Z,99916.84
2023-01-19T19:17:35.782Z,99920.75
2023-01-19T19:20:03.037Z,99923.72
2023-01-19T19:22:29.802Z,99915.69
2023-01-19T19:24:56.466Z,99920.09
2023-01-19T19:27:23.110Z,99922.38
2023-01-19T19:29:49.926Z,99927.47
2023-01-19T19:32:20.489Z,99928.75
2023-01-19T19:34:56.643Z,99928.28
2023-01-19T19:37:23.540Z,99928.59
2023-01-19T19:39:50.417Z,99926.28
2023-01-19T19:42:17.003Z,99936.44
2023-01-19T19:44:43.703Z,99930.22
2023-01-19T19:47:10.310Z,99915.91
2023-01-19T19:49:37.092Z,99925.50
2023-01-19T19:52:03.758Z,99930.91
2023-01-19T19:54:33.641Z,99927.47
2023-01-19T19:57:00.477Z,99936.44
2023-01-19T19:59:27.140Z,99930.91
2023-01-19T20:01:54.461Z,99937.38
2023-01-19T20:04:22.873Z,99942.91
2023-01-19T20:06:49.886Z,99951.25
2023-01-19T20:09:17.274Z,99953.88
2023-01-19T20:11:46.695Z,99953.53
2023-01-19T20:14:13.989Z,99960.25
2023-01-19T20:16:40.777Z,99969.84
2023-01-19T20:19:08.066Z,99970.63
2023-01-19T20:21:41.716Z,99967.53
2023-01-19T20:24:13.766Z,99969.84
2023-01-19T20:26:42.860Z,99981.72
2023-01-19T20:29:11.091Z,99977.00
2023-01-19T20:31:44.145Z,99984.50
2023-01-19T20:34:13.402Z,99979.16
2023-01-19T20:36:41.173Z,99986.78
2023-01-19T20:39:12.753Z,99985.66
2023-01-19T20:41:43.745Z,99987.00
2023-01-19T20:44:20.127Z,99983.75
2023-01-19T20:46:47.121Z,99987.00
2023-01-19T20:49:13.752Z,99996.94
2023-01-19T20:51:43.592Z,99998.22
2023-01-19T20:54:11.465Z,99997.59
2023-01-19T20:56:38.381Z,100006.03
2023-01-19T20:59:05.075Z,100011.47
2023-01-19T21:01:31.953Z,100016.50
2023-01-19T21:03:58.922Z,100033.63
2023-01-19T21:06:25.825Z,100031.66
2023-01-19T21:08:52.790Z,100033.47
2023-01-19T21:11:21.061Z,100033.47
2023-01-19T21:13:48.717Z,100035.91
2023-01-19T21:16:15.774Z,100036.72
2023-01-19T21:18:42.775Z,100048.47
2023-01-19T21:21:20.834Z,100052.03
2023-01-19T21:23:51.710Z,100053.66
2023-01-19T21:26:18.502Z,100051.38
2023-01-19T21:28:45.329Z,100061.09
2023-01-19T21:31:13.947Z,100058.91
2023-01-19T21:33:41.940Z,100063.59
2023-01-19T21:36:10.313Z,100071.72
2023-01-19T21:38:38.638Z,100073.66
2023-01-19T21:41:07.682Z,100069.97
2023-01-19T21:43:36.251Z,100072.16
2023-01-19T21:46:16.359Z,100071.72
2023-01-19T21:48:43.296Z,100081.66
2023-01-19T21:51:10.227Z,100093.38
2023-01-19T21:53:37.237Z,100085.66
2023-01-19T21:56:07.633Z,100089.78
2023-01-19T21:58:34.443Z,100090.97
2023-01-19T22:01:07.310Z,100083.50
2023-01-19T22:03:34.269Z,100083.19
2023-01-19T22:06:08.833Z,100088.72
2023-01-19T22:08:38.930Z,100089.56
2023-01-19T22:11:07.933Z,100092.34
2023-01-19T22:13:38.598Z,100091.34
2023-01-19T22:16:11.425Z,100101.16
2023-01-19T22:18:39.520Z,100094.16
2023-01-19T22:21:13.792Z,100093.84
2023-01-19T22:23:41.948Z,100106.53
2023-01-19T22:26:13.289Z,100103.47
2023-01-19T22:28:40.311Z,100100.22
2023-01-19T22:31:20.624Z,100113.91
2023-01-19T22:33:49.101Z,100114.72
2023-01-19T22:36:17.281Z,100120.72
2023-01-19T22:38:44.492Z,100117.31
2023-01-19T22:41:17.819Z,100120.72
2023-01-19T22:43:44.802Z,100116.28
2023-01-19T22:46:11.923Z,100120.34
2023-01-19T22:48:40.466Z,100125.88
2023-01-19T22:51:07.747Z,100132.25
2023-01-19T22:53:34.425Z,100136.47
2023-01-19T22:56:01.379Z,100133.22
2023-01-19T22:58:28.336Z,100133.22
2023-01-19T23:00:54.913Z,100140.22
2023-01-19T23:03:24.524Z,100143.47
2023-01-19T23:05:51.315Z,100137.44
2023-01-19T23:08:18.103Z,100148.97
2023-01-19T23:10:44.945Z,100145.34
2023-01-19T23:13:11.543Z,100148.91
2023-01-19T23:15:38.187Z,100155.94
2023-01-19T23:18:05.027Z,100155.91
2023-01-19T23:20:31.625Z,100152.25
2023-01-19T23:22:58.321Z,100149.50
2023-01-19T23:25:24.865Z,100146.88
2023-01-19T23:27:51.519Z,100149.63
2023-01-19T23:30:18.489Z,100158.84
2023-01-19T23:32:49.647Z,100155.41
2023-01-19T23:35:16.665Z,100156.22
2023-01-19T23:37:43.430Z,100167.28
2023-01-19T23:40:11.584Z,100165.63
2023-01-19T23:42:38.215Z,100166.78
2023-01-19T23:45:05.408Z,100164.66
2023-01-19T23:47:34.709Z,100162.19
2023-01-19T23:50:04.714Z,100175.03
2023-01-19T23:52:31.730Z,100174.03
2023-01-19T23:54:58.533Z,100174.34
2023-01-19T23:57:25.388Z,100185.41
2023-01-19T23:59:52.169Z,100185.00
